Altnaharra, United Kingdom
Current Conditions -  °F | °C
As of 5:50 AM on Sunday 21 Dec 2014 (Local Time) from EGPC Reporting Station
Broken Clouds Broken Clouds  
Wind Chill: 38°   Ceiling: 3700
Heat Index: 45°   Visibility: 6mi
Dew Point: 41°   Wind: 15mph
Humidity: 87%   Direction: 220°SW
Pressure: 29.68"   Gusts: NA
Location:  58.28°N, 4.44°W
Report Text: EGPC 210550Z AUTO 22013KT 180V240 9999 FEW031/// BKN037/// 07/05 Q1005
Loading
Personal Weather Stations






























Interactive Weather Map New forecast layout! Learn more

10-Day Weather Forecast

Advertisements
Track Severe Weather on mobile